Pagina principale
METAR-TAF:

METAR-TAF

Aeroporti :

Aeroporto di Port Moresby

Port Moresby, Papua Nuova Guinea

latitudine: 09-26S, longitudine: 147-13E, altezza: 38 m

Osservazione

Il bollettino è stato emesso 57 minuti fa, alle 00:00 UTC
Vento 4 kt da nord-ovest
Temperature 27°C
Umidità 79%
Pressione 1013 hPa
Visibilità 10 km o più
Poco nuvoloso ad un'altezza di 5000 ft

METAR: AYPY 160000Z 32004KT 9999 FUHZ FEW050 27/23 Q1013 RMK/VIS RDC 6KM

Ora: 10:57 (00:57 UTC)

Previsione

Il bollettino è stato emesso 2 ore e 51 minuti fa, alle 22:06 UTC
Previsione valida dal 16 alle 00 UTC al 16 alle 24 UTC
Vento 7 kt da sud
Visibilità 10 km o più
Poco nuvoloso ad un'altezza di 2000 ft
Nuvoloso ad un'altezza di 16000 ft
A partire da 16 alle 0300 UTC
Vento 10 kt da sud
Visibilità 10 km o più
Nubi sparse ad un'altezza di 2500 ft
Nubi sparse ad un'altezza di 16000 ft

TAF: AYPY 152206Z 1600/1624 17007KT 9999 FEW020 BKN160 FM160300 17010KT 9999 SCT025 SCT160

Osservazioni e previsioni meteorologiche di più di 4000 aeroporti (messaggi METAR e TAF).

Le stazioni disponibili sono rappresentate dai dischi gialli e rossi sulla carta.

Puntare il mouse per vedere il nome della stazione.

Clicca sopra per visualizzare le osservazioni e previsioni meteorologiche.

Per cambiare la mappa : fare clic sui pulsanti verdi con una croce nera per ingrandire, il pulsante verde con un trattino per diminuire, o sulla freccia verde per le mappe adiacenti.


METAR-TAF: